MUCU/SCU METAR and TAF weather

Enter ICAO airport designator
Station Type Date Time Source
MUCU METAR 2020/02/20 16:50 UTC NOAA

MUCU 201650Z 18007KT 9000 FEW020 29/20 Q1017


Station Type Date Time Source
MUCU Decoded METAR 2020/02/20 16:50 UTC NOAA

Santiago De Cuba, Oriente, Cuba (MUCU) 19-58N 075-51W 55M
Feb 20, 2020 - 11:50 AM EST / 2020.02.20 1650 UTC
Wind: from the S (180 degrees) at 8 MPH (7 KT):0
Visibility: 5 mile(s):0
Sky conditions: mostly clear
Temperature: 84 F (29 C)
Dew Point: 68 F (20 C)
Relative Humidity: 58%
Pressure (altimeter): 30.03 in. Hg (1017 hPa)
ob: MUCU 201650Z 18007KT 9000 FEW020 29/20 Q1017
cycle: 17

Station Type Date Time Source
MUCU TAF 2020/02/20 18:03 UTC NOAA

TAF MUCU 201700Z 2018/2118 16010KT 9000 SCT020
BECMG 2101/2103 36005KT
BECMG 2115/2117 22010KT

Example: see airport list